createdAt,value
2023-11-25T00:04:00.174Z,0.30
2023-11-25T00:09:01.646Z,0.32
2023-11-25T00:14:03.274Z,0.20
2023-11-25T00:19:06.997Z,0.20
2023-11-25T00:24:10.223Z,0.40
2023-11-25T00:29:11.795Z,0.20
2023-11-25T00:34:13.262Z,0.40
2023-11-25T00:39:16.210Z,0.40
2023-11-25T00:44:17.553Z,0.60
2023-11-25T00:49:18.947Z,0.40
2023-11-25T00:54:21.617Z,0.50
2023-11-25T00:59:22.910Z,0.70
2023-11-25T01:04:25.821Z,0.70
2023-11-25T01:09:31.650Z,0.70
2023-11-25T01:14:33.514Z,0.60
2023-11-25T01:19:34.921Z,0.68
2023-11-25T01:24:36.705Z,0.60
2023-11-25T01:29:38.184Z,0.77
2023-11-25T01:34:40.189Z,1.00
2023-11-25T01:39:42.927Z,0.93
2023-11-25T01:44:44.314Z,0.57
2023-11-25T01:49:45.723Z,0.93
2023-11-25T01:54:47.353Z,1.20
2023-11-25T01:59:49.783Z,1.13
2023-11-25T02:04:51.384Z,0.82
2023-11-25T02:09:52.798Z,1.15
2023-11-25T02:14:56.987Z,1.00
2023-11-25T02:20:01.790Z,0.70
2023-11-25T02:25:05.841Z,1.35
2023-11-25T02:30:07.831Z,1.40
2023-11-25T02:35:09.121Z,1.20
2023-11-25T02:40:14.579Z,1.00
2023-11-25T02:45:20.376Z,1.20
2023-11-25T02:50:22.557Z,1.50
2023-11-25T02:55:26.366Z,1.88
2023-11-25T03:00:30.555Z,1.05
2023-11-25T03:05:32.462Z,0.80
2023-11-25T03:10:34.781Z,1.05
2023-11-25T03:15:36.401Z,0.82
2023-11-25T03:20:42.605Z,0.85
2023-11-25T03:25:44.777Z,0.55
2023-11-25T03:30:47.180Z,0.80
2023-11-25T03:35:48.637Z,0.77
2023-11-25T03:40:52.556Z,1.00
2023-11-25T03:45:54.136Z,0.90
2023-11-25T03:50:55.795Z,0.90
2023-11-25T03:55:57.269Z,0.70
2023-11-25T04:00:58.764Z,1.00
2023-11-25T04:06:00.070Z,1.50
2023-11-25T04:11:03.447Z,1.02
2023-11-25T04:16:06.165Z,1.05
2023-11-25T04:21:08.050Z,0.68
2023-11-25T04:26:10.088Z,1.30
2023-11-25T04:31:11.627Z,1.45
2023-11-25T04:36:19.338Z,1.40
2023-11-25T04:41:24.112Z,1.40
2023-11-25T04:46:25.538Z,1.65
2023-11-25T04:51:27.486Z,1.65
2023-11-25T04:56:28.987Z,2.40
2023-11-25T05:01:31.824Z,2.35
2023-11-25T05:06:33.313Z,2.53
2023-11-25T05:11:35.341Z,2.88
2023-11-25T05:16:37.214Z,3.33
2023-11-25T05:21:38.524Z,2.22
2023-11-25T05:26:39.982Z,2.75
2023-11-25T05:31:44.175Z,2.88
2023-11-25T05:36:46.678Z,2.97
2023-11-25T05:41:53.113Z,4.25
2023-11-25T05:46:56.144Z,3.70
2023-11-25T05:52:00.231Z,4.50
2023-11-25T05:57:02.799Z,4.53
2023-11-25T06:02:04.400Z,4.57
2023-11-25T06:07:06.065Z,4.78
2023-11-25T06:12:10.194Z,4.65
2023-11-25T06:17:11.726Z,4.97
2023-11-25T06:22:14.046Z,4.80
2023-11-25T06:27:18.879Z,5.45
2023-11-25T06:32:20.464Z,5.32
2023-11-25T06:37:23.370Z,5.38
2023-11-25T06:42:26.068Z,4.82
2023-11-25T06:47:28.286Z,4.47
2023-11-25T06:52:30.308Z,5.18
2023-11-25T06:57:31.711Z,4.55
2023-11-25T07:02:34.781Z,5.47
2023-11-25T07:07:38.426Z,4.53
2023-11-25T07:12:41.142Z,4.60
2023-11-25T07:17:43.781Z,4.28
2023-11-25T07:22:46.053Z,3.78
2023-11-25T07:27:48.490Z,4.30
2023-11-25T07:32:50.557Z,3.90
2023-11-25T07:37:52.552Z,3.75
2023-11-25T07:42:54.053Z,3.55
2023-11-25T07:47:56.936Z,4.30
2023-11-25T07:52:59.926Z,3.65
2023-11-25T07:58:01.640Z,3.80
2023-11-25T08:03:04.539Z,3.88
2023-11-25T08:08:06.933Z,3.90
2023-11-25T08:13:08.546Z,3.63
2023-11-25T08:18:10.298Z,3.78
2023-11-25T08:23:11.981Z,4.32
2023-11-25T08:28:13.815Z,4.30
2023-11-25T08:33:15.776Z,3.60
2023-11-25T08:38:17.329Z,4.35
2023-11-25T08:43:18.977Z,3.05
2023-11-25T08:48:21.031Z,2.97
2023-11-25T08:53:24.105Z,2.30
2023-11-25T08:58:27.177Z,2.30
2023-11-25T09:03:29.142Z,3.40
2023-11-25T09:08:30.832Z,2.35
2023-11-25T09:13:34.238Z,2.25
2023-11-25T09:18:35.877Z,2.95
2023-11-25T09:23:37.541Z,2.80
2023-11-25T09:28:38.900Z,2.22
2023-11-25T09:33:40.765Z,3.83
2023-11-25T09:38:42.131Z,2.40
2023-11-25T09:43:45.487Z,2.15
2023-11-25T09:48:47.273Z,5.05
2023-11-25T09:53:56.525Z,3.75
2023-11-25T09:58:57.921Z,2.20
2023-11-25T10:04:02.240Z,2.03
2023-11-25T10:09:04.120Z,2.15
2023-11-25T10:14:10.270Z,2.33
2023-11-25T10:19:20.400Z,2.20
2023-11-25T10:24:23.222Z,2.13
2023-11-25T10:29:26.172Z,2.15
2023-11-25T10:34:31.375Z,1.98
2023-11-25T10:39:37.841Z,2.05
2023-11-25T10:44:40.354Z,2.20
2023-11-25T10:49:46.826Z,2.17
2023-11-25T10:54:51.197Z,1.85
2023-11-25T10:59:58.906Z,1.98
2023-11-25T11:05:07.868Z,1.98
2023-11-25T11:10:12.225Z,2.03
2023-11-25T11:15:16.911Z,2.50
2023-11-25T11:20:20.161Z,2.17
2023-11-25T11:25:37.212Z,1.95
2023-11-25T11:31:23.587Z,1.60
2023-11-25T11:36:32.171Z,1.90
2023-11-25T11:41:35.878Z,1.48
2023-11-25T11:46:43.646Z,1.50
2023-11-25T11:52:03.660Z,1.50
2023-11-25T11:57:06.713Z,1.50
2023-11-25T12:02:08.401Z,1.35
2023-11-25T12:07:11.180Z,1.65
2023-11-25T12:12:13.215Z,1.77
2023-11-25T12:17:15.878Z,2.45
2023-11-25T12:22:21.293Z,1.63
2023-11-25T12:27:26.271Z,1.27
2023-11-25T12:32:27.685Z,1.15
2023-11-25T12:37:29.269Z,1.20
2023-11-25T12:42:30.578Z,1.75
2023-11-25T12:47:31.991Z,1.10
2023-11-25T12:52:33.368Z,2.00
2023-11-25T12:57:34.884Z,2.17
2023-11-25T13:02:44.800Z,1.58
2023-11-25T13:07:46.542Z,1.23
2023-11-25T13:12:48.245Z,1.65
2023-11-25T13:17:50.052Z,1.00
2023-11-25T13:22:51.435Z,1.48
2023-11-25T13:27:52.990Z,1.60
2023-11-25T13:32:57.199Z,1.92
2023-11-25T13:38:01.838Z,1.92
2023-11-25T13:43:05.348Z,1.70
2023-11-25T13:48:07.280Z,1.50
2023-11-25T13:53:09.507Z,1.90
2023-11-25T13:58:13.082Z,1.65
2023-11-25T14:03:15.435Z,1.90
2023-11-25T14:08:20.021Z,1.83
2023-11-25T14:13:22.509Z,1.98
2023-11-25T14:18:25.273Z,2.78
2023-11-25T14:23:26.767Z,1.40
2023-11-25T14:28:28.193Z,1.33
2023-11-25T14:33:32.569Z,1.73
2023-11-25T14:38:34.252Z,1.00
2023-11-25T14:43:35.606Z,1.35
2023-11-25T14:48:37.078Z,0.80
2023-11-25T14:53:42.296Z,1.13
2023-11-25T14:58:43.822Z,1.50
2023-11-25T15:03:45.468Z,1.23
2023-11-25T15:08:46.929Z,1.08
2023-11-25T15:13:51.499Z,1.00
2023-11-25T15:18:52.976Z,1.30
2023-11-25T15:23:57.486Z,1.80
2023-11-25T15:29:01.491Z,1.10
2023-11-25T15:34:05.371Z,0.90
2023-11-25T15:39:07.681Z,1.00
2023-11-25T15:44:10.681Z,1.10
2023-11-25T15:49:13.327Z,0.90
2023-11-25T15:54:14.709Z,1.50
2023-11-25T15:59:16.292Z,1.60
2023-11-25T16:04:19.672Z,1.08
2023-11-25T16:09:21.059Z,1.00
2023-11-25T16:14:22.467Z,1.00
2023-11-25T16:19:23.818Z,1.13
2023-11-25T16:24:26.624Z,0.73
2023-11-25T16:29:31.118Z,1.00
2023-11-25T16:34:32.537Z,0.88
2023-11-25T16:39:34.096Z,0.90
2023-11-25T16:44:35.518Z,0.85
2023-11-25T16:49:41.756Z,0.70
2023-11-25T16:54:44.814Z,0.73
2023-11-25T16:59:46.884Z,1.90
2023-11-25T17:04:51.580Z,0.70
2023-11-25T17:14:54.548Z,0.90
2023-11-25T17:19:57.357Z,0.90
2023-11-25T17:25:00.967Z,1.98
2023-11-25T17:30:03.270Z,1.48
2023-11-25T17:35:06.660Z,1.70
2023-11-25T17:40:10.304Z,1.35
2023-11-25T17:45:16.135Z,1.20
2023-11-25T17:50:18.930Z,1.92
2023-11-25T17:55:20.533Z,2.13
2023-11-25T18:00:21.834Z,1.60
2023-11-25T18:05:25.520Z,1.25
2023-11-25T18:10:28.823Z,1.58
2023-11-25T18:15:30.729Z,1.42
2023-11-25T18:20:33.755Z,0.90
2023-11-25T18:25:35.301Z,0.30
2023-11-25T18:30:42.400Z,0.40
2023-11-25T18:35:44.493Z,0.30
2023-11-25T18:40:46.981Z,0.40
2023-11-25T18:45:48.975Z,1.35
2023-11-25T18:50:52.657Z,0.70
2023-11-25T18:55:54.028Z,0.60
2023-11-25T19:00:56.046Z,0.50
2023-11-25T19:06:01.059Z,1.08
2023-11-25T19:11:02.626Z,0.90
2023-11-25T19:16:06.538Z,0.70
2023-11-25T19:21:13.846Z,2.13
2023-11-25T19:26:16.476Z,0.75
2023-11-25T19:31:17.961Z,0.73
2023-11-25T19:36:19.402Z,0.73
2023-11-25T19:41:22.390Z,1.10
2023-11-25T19:46:23.878Z,1.08
2023-11-25T19:51:26.237Z,0.80
2023-11-25T19:56:28.413Z,0.77
2023-11-25T20:01:30.140Z,0.80
2023-11-25T20:06:33.629Z,0.80
2023-11-25T20:11:35.347Z,0.70
2023-11-25T20:16:36.812Z,0.70
2023-11-25T20:21:38.713Z,0.80
2023-11-25T20:26:40.088Z,1.85
2023-11-25T20:31:41.684Z,1.48
2023-11-25T20:36:45.385Z,1.02
2023-11-25T20:41:46.832Z,1.02
2023-11-25T20:46:48.823Z,0.95
2023-11-25T20:51:50.903Z,0.90
2023-11-25T20:56:53.911Z,0.77
2023-11-25T21:01:55.921Z,0.90
2023-11-25T21:06:59.072Z,0.88
2023-11-25T21:12:00.557Z,1.08
2023-11-25T21:17:04.713Z,1.10
2023-11-25T21:22:08.537Z,1.40
2023-11-25T21:27:10.660Z,1.05
2023-11-25T21:32:12.862Z,0.90
2023-11-25T21:37:15.008Z,0.80
2023-11-25T21:42:19.424Z,0.68
2023-11-25T21:47:22.337Z,0.95
2023-11-25T21:52:27.372Z,0.90
2023-11-25T21:57:29.013Z,0.90
2023-11-25T22:02:34.924Z,1.15
2023-11-25T22:07:36.945Z,1.10
2023-11-25T22:12:40.438Z,1.25
2023-11-25T22:17:44.691Z,1.63
2023-11-25T22:22:46.486Z,1.25
2023-11-25T22:27:47.837Z,1.23
2023-11-25T22:32:49.881Z,1.67
2023-11-25T22:37:52.205Z,1.45
2023-11-25T22:42:53.648Z,1.55
2023-11-25T22:47:56.883Z,1.33
2023-11-25T22:52:58.706Z,1.15
2023-11-25T22:58:03.676Z,1.25
2023-11-25T23:03:06.137Z,1.25
2023-11-25T23:08:09.255Z,1.23
2023-11-25T23:13:11.702Z,1.50
2023-11-25T23:18:13.045Z,1.60
2023-11-25T23:23:14.677Z,1.95
2023-11-25T23:28:18.033Z,1.85
2023-11-25T23:33:19.485Z,2.30
2023-11-25T23:38:20.980Z,1.73
2023-11-25T23:43:22.524Z,1.40
2023-11-25T23:48:24.490Z,1.50
2023-11-25T23:53:26.041Z,1.40
2023-11-25T23:58:27.362Z,2.00
